Time;durP1;ratioP1;P1;durP2;ratioP2;P2;SDS_P1;SDS_P2;PMS_P1;PMS_P2;Temp;Humidity;BMP_temperature;BMP_pressure;BME280_temperature;BME280_humidity;BME280_pressure;Samples;Min_cycle;Max_cycle;Signal;HPM_P1;HPM_P2
2021/10/21 00:00:34;;;;;;;;;5.50;0.00;;;;;;;;5014908;28;45258;-64
2021/10/21 00:03:00;;;;;;;;;4.50;1.25;;;;;;;;5014916;28;45222;-64
2021/10/21 00:05:25;;;;;;;;;2.25;1.00;;;;;;;;5016076;28;45267;-65
2021/10/21 00:07:51;;;;;;;;;0.00;0.00;;;;;;;;5015325;28;45479;-65
2021/10/21 00:10:16;;;;;;;;;1.00;1.00;;;;;;;;5015979;28;45268;-64
2021/10/21 00:12:41;;;;;;;;;2.50;1.25;;;;;;;;5016429;28;45406;-64
2021/10/21 00:15:08;;;;;;;;;1.00;1.00;;;;;;;;5016789;28;45535;-65
2021/10/21 00:17:33;;;;;;;;;1.75;1.00;;;;;;;;5016071;28;46470;-64
2021/10/21 00:19:58;;;;;;;;;6.00;1.00;;;;;;;;5015792;28;45748;-64
2021/10/21 00:22:23;;;;;;;;;4.00;0.75;;;;;;;;5016152;28;46057;-64
2021/10/21 00:24:48;;;;;;;;;3.25;1.00;;;;;;;;5016025;28;45577;-64
2021/10/21 00:27:14;;;;;;;;;3.00;1.00;;;;;;;;5015534;28;46254;-63
2021/10/21 00:29:39;;;;;;;;;0.00;0.00;;;;;;;;5015696;28;45384;-64
2021/10/21 00:32:04;;;;;;;;;3.50;0.00;;;;;;;;5014846;28;45372;-64
2021/10/21 00:34:29;;;;;;;;;1.00;0.50;;;;;;;;5016034;28;45624;-64
2021/10/21 00:36:55;;;;;;;;;2.50;0.00;;;;;;;;5015637;28;46099;-66
2021/10/21 00:39:20;;;;;;;;;3.50;0.50;;;;;;;;5015639;28;45372;-65
2021/10/21 00:41:45;;;;;;;;;3.25;1.75;;;;;;;;5015731;28;45669;-64
2021/10/21 00:44:12;;;;;;;;;3.00;0.25;;;;;;;;5015454;28;45530;-64
2021/10/21 00:46:38;;;;;;;;;1.50;0.00;;;;;;;;5015709;28;45407;-64
2021/10/21 00:49:04;;;;;;;;;3.00;0.00;;;;;;;;5015373;28;45341;-65
2021/10/21 00:51:29;;;;;;;;;2.25;0.00;;;;;;;;5015750;28;45388;-65
2021/10/21 00:53:55;;;;;;;;;2.50;0.25;;;;;;;;5015746;28;45518;-68
2021/10/21 00:56:21;;;;;;;;;1.00;1.00;;;;;;;;5015416;28;45340;-64
2021/10/21 00:58:50;;;;;;;;;0.00;0.00;;;;;;;;5015631;28;45197;-66
2021/10/21 01:01:15;;;;;;;;;0.00;0.00;;;;;;;;5015981;28;45450;-64
2021/10/21 01:03:40;;;;;;;;;1.00;0.00;;;;;;;;5016169;28;45550;-65
2021/10/21 01:06:05;;;;;;;;;0.00;0.00;;;;;;;;5015408;28;45506;-64
2021/10/21 01:08:31;;;;;;;;;1.00;0.00;;;;;;;;5015350;28;45363;-66
2021/10/21 01:10:57;;;;;;;;;2.75;0.00;;;;;;;;5015353;28;45815;-65
2021/10/21 01:13:22;;;;;;;;;0.00;0.00;;;;;;;;5015491;28;45383;-64
2021/10/21 01:15:47;;;;;;;;;0.25;0.00;;;;;;;;5015064;28;45996;-64
2021/10/21 01:18:12;;;;;;;;;0.75;0.00;;;;;;;;5013615;28;45349;-64
2021/10/21 01:20:37;;;;;;;;;0.00;0.00;;;;;;;;5018005;28;45285;-66
2021/10/21 01:23:03;;;;;;;;;0.00;0.00;;;;;;;;5019066;28;45595;-63
2021/10/21 01:25:28;;;;;;;;;0.25;0.00;;;;;;;;5018511;28;45391;-63
2021/10/21 01:27:54;;;;;;;;;0.50;0.00;;;;;;;;5018590;28;45408;-67
2021/10/21 01:30:24;;;;;;;;;0.00;0.00;;;;;;;;5018580;28;45449;-65
2021/10/21 01:32:50;;;;;;;;;1.00;0.00;;;;;;;;5018867;28;45529;-64
2021/10/21 01:35:16;;;;;;;;;2.00;0.00;;;;;;;;5018208;28;46182;-64
2021/10/21 01:37:41;;;;;;;;;0.00;0.00;;;;;;;;5017151;28;45372;-64
2021/10/21 01:40:10;;;;;;;;;0.00;0.00;;;;;;;;5018608;28;45387;-64
2021/10/21 01:42:36;;;;;;;;;0.00;0.00;;;;;;;;5018821;28;45409;-64
2021/10/21 01:45:01;;;;;;;;;0.75;0.00;;;;;;;;5016659;28;48681;-64
2021/10/21 01:47:26;;;;;;;;;1.00;0.00;;;;;;;;5018435;28;45323;-65
2021/10/21 01:49:51;;;;;;;;;0.00;0.00;;;;;;;;5018517;28;45478;-65
2021/10/21 01:52:17;;;;;;;;;0.00;0.00;;;;;;;;5018652;28;45436;-63
2021/10/21 01:54:42;;;;;;;;;0.00;0.00;;;;;;;;5018519;28;46059;-64
2021/10/21 01:57:07;;;;;;;;;0.00;0.00;;;;;;;;5018307;28;45443;-64
2021/10/21 01:59:32;;;;;;;;;0.00;0.00;;;;;;;;5018113;28;45315;-65
2021/10/21 02:01:58;;;;;;;;;0.00;0.00;;;;;;;;5018554;28;45645;-64
2021/10/21 02:04:23;;;;;;;;;0.50;0.00;;;;;;;;5017940;28;45672;-64
2021/10/21 02:06:48;;;;;;;;;2.00;0.00;;;;;;;;5018167;28;45277;-66
2021/10/21 02:09:13;;;;;;;;;3.00;0.00;;;;;;;;5018332;28;45285;-65
2021/10/21 02:11:38;;;;;;;;;1.00;0.00;;;;;;;;5018340;28;45308;-65
2021/10/21 02:14:04;;;;;;;;;0.00;0.00;;;;;;;;5018187;28;45456;-65
2021/10/21 02:16:29;;;;;;;;;0.75;0.00;;;;;;;;5017865;28;45484;-66
2021/10/21 02:18:54;;;;;;;;;1.00;0.00;;;;;;;;5018040;28;45323;-67
2021/10/21 02:21:20;;;;;;;;;1.00;0.00;;;;;;;;5018171;28;45631;-65
2021/10/21 02:23:45;;;;;;;;;1.00;0.00;;;;;;;;5017675;28;46109;-66
2021/10/21 02:26:10;;;;;;;;;0.00;0.00;;;;;;;;5018490;28;45437;-65
2021/10/21 02:28:35;;;;;;;;;1.00;0.00;;;;;;;;5017912;28;45517;-64
2021/10/21 02:31:01;;;;;;;;;0.00;0.00;;;;;;;;5017924;28;45387;-64
2021/10/21 02:33:26;;;;;;;;;0.00;0.00;;;;;;;;5016324;28;45727;-64
2021/10/21 02:35:51;;;;;;;;;0.00;0.00;;;;;;;;5016480;28;45268;-66
2021/10/21 02:38:16;;;;;;;;;3.00;0.00;;;;;;;;5017874;28;45320;-66
2021/10/21 02:40:42;;;;;;;;;0.75;0.00;;;;;;;;5016778;28;45247;-66
2021/10/21 02:43:07;;;;;;;;;0.00;0.00;;;;;;;;5017547;28;45332;-64
2021/10/21 02:45:32;;;;;;;;;0.00;0.00;;;;;;;;5017520;28;45258;-65
2021/10/21 02:47:57;;;;;;;;;0.00;0.00;;;;;;;;5017604;28;45215;-64
2021/10/21 02:50:23;;;;;;;;;0.00;0.00;;;;;;;;5017756;28;45363;-64
2021/10/21 02:52:48;;;;;;;;;0.50;0.00;;;;;;;;5017290;28;46250;-64
2021/10/21 02:55:14;;;;;;;;;0.75;0.00;;;;;;;;5017714;28;45302;-63
2021/10/21 02:57:41;;;;;;;;;0.50;0.00;;;;;;;;5017485;28;45326;-63
2021/10/21 03:00:07;;;;;;;;;0.25;0.00;;;;;;;;5017579;28;45221;-65
2021/10/21 03:02:32;;;;;;;;;0.00;0.00;;;;;;;;5017202;28;46591;-65
2021/10/21 03:04:57;;;;;;;;;0.25;0.00;;;;;;;;5017220;28;45312;-65
2021/10/21 03:07:22;;;;;;;;;1.00;0.00;;;;;;;;5017333;28;45360;-65
2021/10/21 03:09:48;;;;;;;;;0.00;0.00;;;;;;;;5017422;28;45551;-64
2021/10/21 03:12:13;;;;;;;;;0.00;0.00;;;;;;;;5017470;28;46242;-64
2021/10/21 03:14:38;;;;;;;;;0.00;0.00;;;;;;;;5017129;28;45312;-65
2021/10/21 03:17:04;;;;;;;;;0.50;0.00;;;;;;;;5017324;28;45315;-68
2021/10/21 03:19:29;;;;;;;;;0.00;0.00;;;;;;;;5017246;28;45323;-65
2021/10/21 03:21:54;;;;;;;;;0.50;0.00;;;;;;;;5016907;28;45382;-65
2021/10/21 03:24:19;;;;;;;;;0.00;0.00;;;;;;;;5015456;28;45688;-65
2021/10/21 03:26:44;;;;;;;;;1.75;0.00;;;;;;;;5017408;28;45359;-63
2021/10/21 03:29:10;;;;;;;;;1.25;0.00;;;;;;;;5016885;28;45431;-65
2021/10/21 03:31:35;;;;;;;;;0.00;0.00;;;;;;;;5015338;28;48044;-64
2021/10/21 03:34:00;;;;;;;;;0.75;0.00;;;;;;;;5015326;28;45246;-65
2021/10/21 03:36:25;;;;;;;;;0.00;0.00;;;;;;;;5017017;28;45431;-65
2021/10/21 03:38:51;;;;;;;;;0.00;0.00;;;;;;;;5017030;28;45533;-63
2021/10/21 03:41:16;;;;;;;;;0.00;0.00;;;;;;;;5014674;28;46583;-64
2021/10/21 03:43:41;;;;;;;;;0.50;0.25;;;;;;;;5016277;28;45340;-63
2021/10/21 03:46:07;;;;;;;;;0.25;0.00;;;;;;;;5015972;28;45456;-66
2021/10/21 03:48:32;;;;;;;;;0.00;0.00;;;;;;;;5016204;28;45530;-64
2021/10/21 03:50:57;;;;;;;;;0.00;0.00;;;;;;;;5015764;28;45294;-62
2021/10/21 03:53:22;;;;;;;;;1.25;0.00;;;;;;;;5014710;28;45260;-63
2021/10/21 03:55:47;;;;;;;;;1.75;0.00;;;;;;;;5016890;28;45305;-64
2021/10/21 03:58:13;;;;;;;;;0.00;0.00;;;;;;;;5016775;28;45566;-65
2021/10/21 04:00:38;;;;;;;;;1.00;0.00;;;;;;;;5016423;28;46443;-62
2021/10/21 04:03:03;;;;;;;;;0.00;0.00;;;;;;;;5016503;28;45484;-64
2021/10/21 04:05:29;;;;;;;;;3.75;0.00;;;;;;;;5016826;28;45334;-65
2021/10/21 04:07:54;;;;;;;;;1.50;0.00;;;;;;;;5015009;28;45356;-64
2021/10/21 04:10:19;;;;;;;;;0.00;0.00;;;;;;;;5016343;28;46466;-66
2021/10/21 04:12:45;;;;;;;;;0.00;0.00;;;;;;;;5016190;28;45221;-63
2021/10/21 04:15:10;;;;;;;;;0.00;0.00;;;;;;;;5016213;28;45334;-64
2021/10/21 04:17:35;;;;;;;;;0.50;0.00;;;;;;;;5014927;28;45673;-65
2021/10/21 04:20:01;;;;;;;;;0.00;0.00;;;;;;;;5014753;28;48242;-64
2021/10/21 04:22:26;;;;;;;;;0.75;0.00;;;;;;;;5015977;28;45258;-65
2021/10/21 04:24:51;;;;;;;;;1.00;0.00;;;;;;;;5016075;28;45289;-63
2021/10/21 04:27:17;;;;;;;;;0.00;0.00;;;;;;;;5016684;28;45229;-65
2021/10/21 04:29:42;;;;;;;;;2.50;0.25;;;;;;;;5014444;28;47121;-64
2021/10/21 04:32:07;;;;;;;;;0.00;0.00;;;;;;;;5015752;28;45345;-64
2021/10/21 04:34:33;;;;;;;;;2.50;0.00;;;;;;;;5016152;28;45278;-65
2021/10/21 04:36:59;;;;;;;;;1.50;0.75;;;;;;;;5016043;28;45323;-65
2021/10/21 04:39:24;;;;;;;;;3.00;0.00;;;;;;;;5014364;28;45405;-64
2021/10/21 04:41:50;;;;;;;;;2.25;0.00;;;;;;;;5015921;28;45268;-65
2021/10/21 04:44:15;;;;;;;;;0.00;0.00;;;;;;;;5015577;28;45506;-65
2021/10/21 04:46:40;;;;;;;;;1.00;0.00;;;;;;;;5015908;28;45506;-65
2021/10/21 04:49:05;;;;;;;;;2.00;0.00;;;;;;;;5015454;28;45340;-65
2021/10/21 04:51:30;;;;;;;;;1.25;0.00;;;;;;;;5015538;28;45274;-64
2021/10/21 04:53:56;;;;;;;;;0.00;0.00;;;;;;;;5015699;28;45398;-64
2021/10/21 04:56:21;;;;;;;;;2.25;1.00;;;;;;;;5015996;28;45536;-63
2021/10/21 04:58:46;;;;;;;;;2.00;0.00;;;;;;;;5015421;28;45403;-64
2021/10/21 05:01:11;;;;;;;;;2.50;0.75;;;;;;;;5015275;28;45415;-62
2021/10/21 05:03:37;;;;;;;;;4.00;0.00;;;;;;;;5014315;28;45249;-63
2021/10/21 05:06:02;;;;;;;;;1.75;1.00;;;;;;;;5015643;28;45386;-62
2021/10/21 05:08:27;;;;;;;;;3.00;1.00;;;;;;;;5015352;28;46342;-64
2021/10/21 05:10:52;;;;;;;;;2.00;1.00;;;;;;;;5015765;28;45174;-64
2021/10/21 05:13:18;;;;;;;;;0.25;0.25;;;;;;;;5015828;28;45723;-64
2021/10/21 05:15:43;;;;;;;;;2.00;1.50;;;;;;;;5015703;28;45249;-65
2021/10/21 05:18:08;;;;;;;;;0.00;0.00;;;;;;;;5014944;28;46354;-64
2021/10/21 05:20:34;;;;;;;;;2.00;1.00;;;;;;;;5014954;28;45367;-64
2021/10/21 05:23:00;;;;;;;;;5.00;1.00;;;;;;;;5013607;28;45777;-64
2021/10/21 05:25:25;;;;;;;;;2.50;2.00;;;;;;;;5014957;28;45598;-65
2021/10/21 05:27:50;;;;;;;;;1.25;0.50;;;;;;;;5015325;28;46489;-65
2021/10/21 05:30:15;;;;;;;;;3.00;0.00;;;;;;;;5014794;28;45328;-64
2021/10/21 05:32:41;;;;;;;;;0.50;0.50;;;;;;;;5015206;28;45376;-64
2021/10/21 05:35:06;;;;;;;;;3.00;1.00;;;;;;;;5014895;28;45609;-64
2021/10/21 05:37:31;;;;;;;;;2.00;1.50;;;;;;;;5014745;28;46326;-65
2021/10/21 05:39:58;;;;;;;;;2.50;1.00;;;;;;;;5014985;28;45341;-64
2021/10/21 05:42:23;;;;;;;;;2.00;2.00;;;;;;;;5015222;28;45450;-64
2021/10/21 05:44:49;;;;;;;;;2.75;0.00;;;;;;;;5014649;28;45473;-64
2021/10/21 05:47:15;;;;;;;;;0.50;0.25;;;;;;;;5013724;28;46205;-63
2021/10/21 05:49:41;;;;;;;;;4.00;1.25;;;;;;;;5013266;28;45325;-65
2021/10/21 05:52:06;;;;;;;;;1.25;0.75;;;;;;;;5014913;28;45370;-64
2021/10/21 05:54:31;;;;;;;;;5.00;2.00;;;;;;;;5013712;28;45246;-65
2021/10/21 05:56:57;;;;;;;;;4.75;1.00;;;;;;;;5014646;28;46252;-64
2021/10/21 05:59:22;;;;;;;;;1.25;1.00;;;;;;;;5014701;28;45297;-66
2021/10/21 06:01:47;;;;;;;;;4.75;0.50;;;;;;;;5014740;28;45376;-65
2021/10/21 06:04:12;;;;;;;;;2.25;1.00;;;;;;;;5014525;28;45525;-66
2021/10/21 06:06:38;;;;;;;;;1.00;1.00;;;;;;;;5017404;28;45239;-67
2021/10/21 06:09:03;;;;;;;;;0.75;0.75;;;;;;;;5017525;28;45264;-66
2021/10/21 06:11:29;;;;;;;;;4.75;1.25;;;;;;;;5017776;28;45296;-63
2021/10/21 06:13:55;;;;;;;;;2.25;1.00;;;;;;;;5018199;28;45270;-65
2021/10/21 06:16:20;;;;;;;;;3.50;0.50;;;;;;;;5017349;28;46184;-63
2021/10/21 06:18:45;;;;;;;;;3.50;1.75;;;;;;;;5017368;28;45418;-63
2021/10/21 06:21:12;;;;;;;;;5.00;2.00;;;;;;;;5017575;28;45618;-65
2021/10/21 06:23:37;;;;;;;;;5.50;1.50;;;;;;;;5017904;28;45536;-64
2021/10/21 06:26:03;;;;;;;;;2.25;1.75;;;;;;;;5017164;28;46677;-63
2021/10/21 06:28:28;;;;;;;;;2.00;0.75;;;;;;;;5016245;28;45472;-64
2021/10/21 06:30:53;;;;;;;;;4.25;1.50;;;;;;;;5017675;28;45468;-65
2021/10/21 06:33:19;;;;;;;;;2.75;2.75;;;;;;;;5017654;28;45661;-66
2021/10/21 06:35:45;;;;;;;;;2.75;2.75;;;;;;;;5017195;28;46372;-66
2021/10/21 06:38:11;;;;;;;;;3.00;2.75;;;;;;;;5017133;28;45372;-65
2021/10/21 06:40:37;;;;;;;;;3.25;2.00;;;;;;;;5017143;28;45313;-65
2021/10/21 06:43:02;;;;;;;;;3.25;3.25;;;;;;;;5017122;28;45484;-62
2021/10/21 06:45:28;;;;;;;;;4.25;2.25;;;;;;;;5017027;28;45589;-64
2021/10/21 06:47:53;;;;;;;;;3.25;1.75;;;;;;;;5017442;28;45239;-64
2021/10/21 06:50:19;;;;;;;;;3.50;0.75;;;;;;;;5017164;28;45276;-63
2021/10/21 06:52:45;;;;;;;;;4.25;2.25;;;;;;;;5017048;28;45602;-65
2021/10/21 06:55:11;;;;;;;;;4.00;0.75;;;;;;;;5016966;28;45260;-64
2021/10/21 06:57:53;;;;;;;;;6.00;1.50;;;;;;;;5016678;28;45271;-65
2021/10/21 07:00:19;;;;;;;;;4.25;3.00;;;;;;;;5017217;28;45411;-65
2021/10/21 07:02:44;;;;;;;;;4.50;2.00;;;;;;;;5016917;28;45178;-66
2021/10/21 07:05:11;;;;;;;;;8.50;4.75;;;;;;;;5016620;28;45207;-67
2021/10/21 07:07:37;;;;;;;;;3.75;2.25;;;;;;;;5016878;28;45186;-66
2021/10/21 07:10:05;;;;;;;;;5.00;2.75;;;;;;;;5016489;28;45504;-67
2021/10/21 07:12:30;;;;;;;;;8.25;5.50;;;;;;;;5016851;28;45552;-64
2021/10/21 07:14:56;;;;;;;;;14.25;10.50;;;;;;;;5016507;28;46168;-65
2021/10/21 07:17:21;;;;;;;;;6.25;3.50;;;;;;;;5015118;28;45335;-65
2021/10/21 07:19:48;;;;;;;;;2.50;2.50;;;;;;;;5015035;28;45360;-64
2021/10/21 07:22:14;;;;;;;;;3.25;2.50;;;;;;;;5016908;28;45334;-66
2021/10/21 07:24:39;;;;;;;;;3.00;1.00;;;;;;;;5016395;28;45297;-68
2021/10/21 07:27:05;;;;;;;;;4.25;3.25;;;;;;;;5016603;28;45244;-66
2021/10/21 07:29:30;;;;;;;;;3.50;2.25;;;;;;;;5016448;28;45370;-67
2021/10/21 07:31:55;;;;;;;;;5.75;3.00;;;;;;;;5016976;28;45605;-66
2021/10/21 07:34:20;;;;;;;;;5.25;4.00;;;;;;;;5016433;28;45337;-70
2021/10/21 07:36:46;;;;;;;;;8.00;3.00;;;;;;;;5016610;28;45292;-67
2021/10/21 07:39:12;;;;;;;;;4.00;2.50;;;;;;;;5016616;28;45215;-66
2021/10/21 07:41:37;;;;;;;;;4.50;2.50;;;;;;;;5016651;28;45550;-66
2021/10/21 07:44:02;;;;;;;;;5.50;2.00;;;;;;;;5015859;28;46509;-72
2021/10/21 07:46:29;;;;;;;;;7.25;3.75;;;;;;;;5016568;28;45265;-68
2021/10/21 07:48:55;;;;;;;;;7.50;2.25;;;;;;;;5016133;28;45343;-67
2021/10/21 07:51:20;;;;;;;;;4.75;3.00;;;;;;;;5016429;28;45316;-66
2021/10/21 07:53:45;;;;;;;;;10.50;2.75;;;;;;;;5015941;28;46253;-68
2021/10/21 07:56:11;;;;;;;;;3.50;1.50;;;;;;;;5015891;28;45340;-69
2021/10/21 07:58:36;;;;;;;;;5.00;2.25;;;;;;;;5015807;28;45387;-69
2021/10/21 08:01:01;;;;;;;;;3.00;3.00;;;;;;;;5015997;28;45498;-67
2021/10/21 08:03:26;;;;;;;;;4.25;2.00;;;;;;;;5014806;28;46864;-68
2021/10/21 08:05:52;;;;;;;;;8.25;3.00;;;;;;;;5014508;28;45485;-67
2021/10/21 08:08:17;;;;;;;;;4.00;3.25;;;;;;;;5015972;28;45378;-68
2021/10/21 08:10:42;;;;;;;;;4.75;1.75;;;;;;;;5015477;28;45542;-70
2021/10/21 08:13:10;;;;;;;;;10.00;3.00;;;;;;;;5015494;28;46246;-68
2021/10/21 08:15:35;;;;;;;;;5.00;1.50;;;;;;;;5015596;28;45402;-68
2021/10/21 08:18:00;;;;;;;;;2.50;2.00;;;;;;;;5015975;28;45194;-68
2021/10/21 08:20:29;;;;;;;;;5.00;3.25;;;;;;;;5014259;28;45642;-68
2021/10/21 08:22:54;;;;;;;;;3.00;3.00;;;;;;;;5015466;28;47127;-68
2021/10/21 08:25:20;;;;;;;;;4.00;2.50;;;;;;;;5015534;28;45405;-68
2021/10/21 08:27:45;;;;;;;;;9.75;2.00;;;;;;;;5015488;28;45270;-65
2021/10/21 08:30:15;;;;;;;;;5.25;3.50;;;;;;;;5015626;28;45281;-68
2021/10/21 08:32:41;;;;;;;;;9.50;2.25;;;;;;;;5015408;28;45593;-69
2021/10/21 08:35:06;;;;;;;;;4.25;3.00;;;;;;;;5015515;28;45278;-69
2021/10/21 08:37:32;;;;;;;;;2.75;2.25;;;;;;;;5015983;28;45216;-66
2021/10/21 08:39:57;;;;;;;;;7.00;2.25;;;;;;;;5015721;28;45431;-65
2021/10/21 08:42:23;;;;;;;;;4.25;1.75;;;;;;;;5015133;28;46300;-66
2021/10/21 08:44:48;;;;;;;;;6.25;3.50;;;;;;;;5014773;28;45471;-67
2021/10/21 08:47:17;;;;;;;;;2.50;2.50;;;;;;;;5013703;28;45382;-68
2021/10/21 08:49:43;;;;;;;;;3.00;2.75;;;;;;;;5015301;28;45419;-70
2021/10/21 08:52:10;;;;;;;;;3.50;1.50;;;;;;;;5014925;28;45292;-67
2021/10/21 08:54:35;;;;;;;;;3.75;2.00;;;;;;;;5014934;28;45301;-65
2021/10/21 08:57:01;;;;;;;;;4.75;3.00;;;;;;;;5015746;28;45264;-66
2021/10/21 08:59:26;;;;;;;;;4.25;2.50;;;;;;;;5013936;28;45542;-68
2021/10/21 09:02:01;;;;;;;;;7.75;4.00;;;;;;;;5015012;28;46382;-66
2021/10/21 09:04:48;;;;;;;;;4.00;2.50;;;;;;;;5015218;28;45390;-68
2021/10/21 09:09:43;;;;;;;;;4.50;3.00;;;;;;;;5015078;28;45347;-68
2021/10/21 09:12:10;;;;;;;;;4.00;2.50;;;;;;;;5014665;28;46297;-66
2021/10/21 09:14:37;;;;;;;;;4.25;3.75;;;;;;;;5014645;28;45348;-65
2021/10/21 09:17:03;;;;;;;;;4.75;2.00;;;;;;;;5015459;28;45426;-69
2021/10/21 09:19:28;;;;;;;;;5.75;2.75;;;;;;;;5013779;28;45378;-67
2021/10/21 09:21:54;;;;;;;;;5.50;2.25;;;;;;;;5013450;28;45974;-66
2021/10/21 09:24:22;;;;;;;;;2.00;2.00;;;;;;;;5014925;28;45416;-67
2021/10/21 09:26:59;;;;;;;;;8.75;4.00;;;;;;;;5014843;28;45259;-66
2021/10/21 09:29:25;;;;;;;;;3.25;2.75;;;;;;;;5015139;28;45565;-67
2021/10/21 09:32:28;;;;;;;;;5.75;3.00;;;;;;;;5014618;28;45845;-65
2021/10/21 09:34:55;;;;;;;;;5.00;3.00;;;;;;;;4973007;28;45382;-67
2021/10/21 09:37:23;;;;;;;;;3.00;1.75;;;;;;;;5006634;28;45569;-65
2021/10/21 09:39:50;;;;;;;;;2.50;2.00;;;;;;;;5015338;28;45538;-68
2021/10/21 09:42:16;;;;;;;;;3.00;2.50;;;;;;;;5017865;28;46735;-66
2021/10/21 09:44:41;;;;;;;;;6.00;4.00;;;;;;;;5017623;28;45528;-67
2021/10/21 09:47:17;;;;;;;;;2.00;2.00;;;;;;;;5018188;28;45653;-66
2021/10/21 09:49:44;;;;;;;;;3.50;2.00;;;;;;;;5018359;28;45584;-68
2021/10/21 09:52:14;;;;;;;;;8.25;3.50;;;;;;;;5017639;28;46486;-65
2021/10/21 09:54:39;;;;;;;;;4.50;2.00;;;;;;;;5016660;28;46060;-66
2021/10/21 09:57:05;;;;;;;;;7.00;4.00;;;;;;;;5018836;28;45378;-67
2021/10/21 09:59:30;;;;;;;;;6.00;5.00;;;;;;;;5018246;28;45252;-67
2021/10/21 10:02:04;;;;;;;;;7.00;3.50;;;;;;;;5016174;28;46456;-66
2021/10/21 10:04:29;;;;;;;;;3.25;2.75;;;;;;;;5017575;28;45321;-67
2021/10/21 10:06:58;;;;;;;;;2.00;2.00;;;;;;;;5017669;28;45941;-68
2021/10/21 10:09:26;;;;;;;;;4.00;3.25;;;;;;;;5017675;28;45597;-67
2021/10/21 10:11:51;;;;;;;;;2.25;2.25;;;;;;;;5017545;28;45499;-68
2021/10/21 10:14:17;;;;;;;;;6.00;5.25;;;;;;;;5017512;28;45269;-66
2021/10/21 10:16:43;;;;;;;;;4.25;3.50;;;;;;;;5017575;28;45212;-67
2021/10/21 10:19:08;;;;;;;;;15.50;10.75;;;;;;;;5016714;28;45345;-66
2021/10/21 10:21:37;;;;;;;;;7.50;5.50;;;;;;;;5017852;28;46016;-69
2021/10/21 10:24:07;;;;;;;;;4.50;4.25;;;;;;;;5017107;28;45424;-68
2021/10/21 10:26:39;;;;;;;;;4.00;3.00;;;;;;;;5015928;28;45355;-66
2021/10/21 10:29:04;;;;;;;;;4.50;4.25;;;;;;;;5017757;28;45330;-69
2021/10/21 10:31:37;;;;;;;;;2.00;2.00;;;;;;;;5015647;28;48200;-66
2021/10/21 10:34:02;;;;;;;;;2.75;2.00;;;;;;;;5017367;28;45227;-68
2021/10/21 10:36:29;;;;;;;;;3.00;2.00;;;;;;;;5017212;28;45221;-67
2021/10/21 10:38:55;;;;;;;;;7.75;3.25;;;;;;;;5017456;28;45662;-68
2021/10/21 10:41:39;;;;;;;;;2.25;1.00;;;;;;;;5016683;28;46362;-67
2021/10/21 10:44:04;;;;;;;;;2.75;1.00;;;;;;;;5017110;28;45251;-67
2021/10/21 10:46:47;;;;;;;;;5.50;3.00;;;;;;;;5016988;28;45464;-67
2021/10/21 10:49:33;;;;;;;;;5.50;4.50;;;;;;;;5015681;28;45299;-66
2021/10/21 10:51:59;;;;;;;;;3.00;1.00;;;;;;;;5016470;28;45387;-67
2021/10/21 10:54:39;;;;;;;;;4.50;1.50;;;;;;;;5016603;28;45451;-67
2021/10/21 10:57:04;;;;;;;;;5.00;2.25;;;;;;;;5016564;28;45491;-66
2021/10/21 10:59:30;;;;;;;;;5.50;3.00;;;;;;;;5015536;28;45506;-68
2021/10/21 11:01:56;;;;;;;;;3.50;2.00;;;;;;;;5015164;28;48484;-68
2021/10/21 11:04:40;;;;;;;;;8.00;5.00;;;;;;;;5016776;28;45988;-68
2021/10/21 11:07:05;;;;;;;;;7.50;5.00;;;;;;;;5017049;28;45733;-68
2021/10/21 11:09:31;;;;;;;;;3.00;2.00;;;;;;;;5016856;28;45455;-69
2021/10/21 11:11:59;;;;;;;;;6.75;5.00;;;;;;;;5016596;28;45691;-69
2021/10/21 11:14:31;;;;;;;;;10.25;3.00;;;;;;;;5016831;28;45371;-71
2021/10/21 11:16:57;;;;;;;;;6.00;3.00;;;;;;;;5016678;28;45427;-66
2021/10/21 11:19:47;;;;;;;;;3.00;2.50;;;;;;;;5016613;28;45395;-65
2021/10/21 11:22:19;;;;;;;;;7.75;4.75;;;;;;;;5016319;28;46384;-66
2021/10/21 11:24:48;;;;;;;;;4.00;2.25;;;;;;;;5016601;28;45204;-66
2021/10/21 11:27:33;;;;;;;;;6.50;3.25;;;;;;;;5016680;28;45332;-66
2021/10/21 11:30:00;;;;;;;;;2.00;2.00;;;;;;;;5016462;28;45574;-67
2021/10/21 11:32:29;;;;;;;;;5.25;2.00;;;;;;;;5016540;28;45335;-68
2021/10/21 11:34:54;;;;;;;;;14.00;7.25;;;;;;;;5016264;28;45327;-67
2021/10/21 11:37:35;;;;;;;;;16.00;10.25;;;;;;;;5016460;28;45325;-68
2021/10/21 11:40:02;;;;;;;;;8.50;4.00;;;;;;;;5015104;28;45369;-68
2021/10/21 11:42:28;;;;;;;;;16.25;10.25;;;;;;;;5016411;28;46196;-70
2021/10/21 11:45:00;;;;;;;;;8.00;6.00;;;;;;;;5016383;28;45212;-69
2021/10/21 11:47:26;;;;;;;;;9.25;4.25;;;;;;;;5017163;28;45316;-68
2021/10/21 11:49:55;;;;;;;;;9.50;5.00;;;;;;;;5016943;28;45348;-71
2021/10/21 11:52:20;;;;;;;;;4.50;3.50;;;;;;;;5015684;28;45344;-68
2021/10/21 11:54:46;;;;;;;;;10.75;7.50;;;;;;;;5016739;28;45242;-70
2021/10/21 11:57:11;;;;;;;;;7.00;4.00;;;;;;;;5017466;28;45392;-71
2021/10/21 11:59:41;;;;;;;;;4.50;4.25;;;;;;;;5017198;28;45638;-66
2021/10/21 12:02:13;;;;;;;;;7.00;5.75;;;;;;;;5016198;28;45419;-68
2021/10/21 12:04:39;;;;;;;;;6.25;4.00;;;;;;;;5016524;28;45535;-70
2021/10/21 12:07:05;;;;;;;;;8.75;5.00;;;;;;;;5016372;28;45315;-68
2021/10/21 12:09:31;;;;;;;;;6.75;3.00;;;;;;;;5016322;28;45490;-67
2021/10/21 12:12:05;;;;;;;;;5.50;3.00;;;;;;;;5015606;28;46280;-66
2021/10/21 12:14:31;;;;;;;;;9.75;6.00;;;;;;;;5015528;28;45298;-66
2021/10/21 12:16:56;;;;;;;;;9.00;4.75;;;;;;;;5014299;28;45368;-66
2021/10/21 12:19:22;;;;;;;;;7.50;5.50;;;;;;;;5015715;28;45562;-67
2021/10/21 12:21:47;;;;;;;;;4.75;4.50;;;;;;;;5015307;28;46375;-66
2021/10/21 12:24:25;;;;;;;;;6.25;4.50;;;;;;;;5014193;28;45346;-68
2021/10/21 12:27:01;;;;;;;;;7.00;5.00;;;;;;;;5015193;28;45305;-66
2021/10/21 12:29:34;;;;;;;;;5.00;4.00;;;;;;;;5015392;28;45476;-65
2021/10/21 12:31:59;;;;;;;;;6.75;5.00;;;;;;;;5013694;28;47885;-66
2021/10/21 12:34:26;;;;;;;;;8.25;8.25;;;;;;;;5014199;28;45531;-67
2021/10/21 12:36:52;;;;;;;;;12.75;6.25;;;;;;;;5015519;28;45427;-65
2021/10/21 12:39:23;;;;;;;;;9.25;7.50;;;;;;;;5014157;28;45571;-66
2021/10/21 12:41:51;;;;;;;;;13.50;9.50;;;;;;;;5015046;28;45484;-65
2021/10/21 12:44:17;;;;;;;;;15.25;13.00;;;;;;;;5015007;28;45483;-66
2021/10/21 12:46:43;;;;;;;;;13.75;10.00;;;;;;;;5014567;28;45494;-67
2021/10/21 12:49:13;;;;;;;;;65.75;50.75;;;;;;;;5014029;28;45392;-67
2021/10/21 12:51:40;;;;;;;;;29.50;22.50;;;;;;;;5015400;28;45463;-66
2021/10/21 12:54:06;;;;;;;;;14.50;12.25;;;;;;;;5015037;28;45240;-68
2021/10/21 12:56:34;;;;;;;;;8.00;6.00;;;;;;;;5015564;28;45355;-67
2021/10/21 12:59:03;;;;;;;;;7.75;4.25;;;;;;;;5015068;28;45433;-66
2021/10/21 13:01:48;;;;;;;;;10.00;5.00;;;;;;;;5014758;28;46772;-67
2021/10/21 13:04:33;;;;;;;;;7.25;5.00;;;;;;;;5015230;28;45310;-67
2021/10/21 13:06:59;;;;;;;;;12.00;6.00;;;;;;;;5013770;28;45268;-66
2021/10/21 13:09:24;;;;;;;;;8.50;7.25;;;;;;;;5013859;28;45614;-65
2021/10/21 13:11:49;;;;;;;;;6.50;6.00;;;;;;;;5013520;28;47564;-67
2021/10/21 13:14:14;;;;;;;;;4.50;3.25;;;;;;;;5015436;28;45288;-66
2021/10/21 13:16:41;;;;;;;;;7.00;5.75;;;;;;;;5018945;28;45197;-66
2021/10/21 13:19:09;;;;;;;;;6.25;4.25;;;;;;;;5019445;28;45493;-66
2021/10/21 13:21:35;;;;;;;;;10.00;6.00;;;;;;;;5018559;28;46357;-68
2021/10/21 13:24:00;;;;;;;;;13.25;7.25;;;;;;;;5018712;28;45388;-65
2021/10/21 13:26:25;;;;;;;;;4.50;3.50;;;;;;;;5019130;28;45406;-68
2021/10/21 13:28:50;;;;;;;;;16.50;10.50;;;;;;;;5019087;28;45514;-67
2021/10/21 13:31:15;;;;;;;;;3.25;2.25;;;;;;;;5019114;28;46224;-68
2021/10/21 13:33:41;;;;;;;;;5.50;2.50;;;;;;;;5017023;28;45771;-66
2021/10/21 13:36:06;;;;;;;;;4.75;1.50;;;;;;;;5018683;28;45268;-70
2021/10/21 13:38:31;;;;;;;;;2.50;1.75;;;;;;;;5018694;28;45345;-67
2021/10/21 13:40:58;;;;;;;;;2.00;1.50;;;;;;;;5017894;28;46546;-65
2021/10/21 13:43:23;;;;;;;;;2.75;1.00;;;;;;;;5018284;28;45530;-65
2021/10/21 13:45:48;;;;;;;;;1.75;1.00;;;;;;;;5016659;28;45308;-64
2021/10/21 13:48:15;;;;;;;;;3.00;2.00;;;;;;;;5018649;28;45314;-67
2021/10/21 13:50:41;;;;;;;;;2.00;1.00;;;;;;;;5018064;28;45551;-68
2021/10/21 13:53:06;;;;;;;;;4.00;1.00;;;;;;;;5018098;28;45357;-67
2021/10/21 13:55:34;;;;;;;;;4.25;2.00;;;;;;;;5018024;28;45228;-66
2021/10/21 13:57:59;;;;;;;;;3.25;1.75;;;;;;;;5017180;28;45451;-68
2021/10/21 14:00:24;;;;;;;;;5.50;1.75;;;;;;;;5017899;28;45447;-67
2021/10/21 14:02:50;;;;;;;;;3.25;0.75;;;;;;;;5018188;28;45323;-68
2021/10/21 14:05:15;;;;;;;;;0.50;0.50;;;;;;;;5018580;28;45387;-69
2021/10/21 14:07:40;;;;;;;;;0.50;0.00;;;;;;;;5018602;28;45271;-69
2021/10/21 14:10:06;;;;;;;;;2.25;0.50;;;;;;;;5018006;28;45441;-69
2021/10/21 14:12:31;;;;;;;;;3.25;2.50;;;;;;;;5017974;28;45454;-65
2021/10/21 14:14:57;;;;;;;;;4.50;2.00;;;;;;;;5016716;28;45410;-67
2021/10/21 14:17:23;;;;;;;;;3.25;2.25;;;;;;;;5018463;28;45319;-66
2021/10/21 14:19:49;;;;;;;;;1.75;1.75;;;;;;;;5018430;28;46501;-66
2021/10/21 14:22:14;;;;;;;;;2.75;1.50;;;;;;;;5017945;28;45387;-67
2021/10/21 14:24:39;;;;;;;;;2.00;2.00;;;;;;;;5018238;28;45459;-66
2021/10/21 14:27:06;;;;;;;;;0.00;0.00;;;;;;;;5017923;28;45624;-67
2021/10/21 14:29:32;;;;;;;;;1.50;1.50;;;;;;;;5017618;28;47123;-67
2021/10/21 14:31:58;;;;;;;;;6.00;4.25;;;;;;;;5017417;28;45402;-66
2021/10/21 14:34:23;;;;;;;;;3.25;3.25;;;;;;;;5017569;28;45354;-69
2021/10/21 14:36:48;;;;;;;;;2.50;2.50;;;;;;;;5018187;28;45595;-66
2021/10/21 14:39:14;;;;;;;;;2.25;1.00;;;;;;;;5017924;28;46311;-67